createdAt,value
2019-02-20T00:00:22.846Z,5.31
2019-02-20T00:01:22.844Z,5.30
2019-02-20T00:02:22.819Z,5.30
2019-02-20T00:03:22.823Z,5.27
2019-02-20T00:04:22.814Z,5.28
2019-02-20T00:05:22.817Z,5.31
2019-02-20T00:06:22.784Z,5.25
2019-02-20T00:07:22.786Z,5.18
2019-02-20T00:08:22.751Z,5.13
2019-02-20T00:09:22.746Z,5.21
2019-02-20T00:10:22.729Z,5.20
2019-02-20T00:11:22.737Z,5.17
2019-02-20T00:12:22.704Z,5.06
2019-02-20T00:13:22.700Z,5.13
2019-02-20T00:14:22.729Z,5.07
2019-02-20T00:15:22.696Z,5.12
2019-02-20T00:16:22.681Z,5.06
2019-02-20T00:17:22.684Z,5.07
2019-02-20T00:18:22.639Z,5.04
2019-02-20T00:19:22.626Z,5.02
2019-02-20T00:20:22.638Z,5.06
2019-02-20T00:21:22.617Z,4.96
2019-02-20T00:22:22.590Z,5.03
2019-02-20T00:23:22.581Z,4.96
2019-02-20T00:24:22.586Z,5.02
2019-02-20T00:25:22.564Z,5.02
2019-02-20T00:26:22.561Z,4.99
2019-02-20T00:27:22.567Z,4.96
2019-02-20T00:28:22.542Z,4.89
2019-02-20T00:29:22.555Z,4.89
2019-02-20T00:30:22.511Z,4.99
2019-02-20T00:31:22.576Z,4.92
2019-02-20T00:32:22.578Z,4.96
2019-02-20T00:33:22.535Z,4.96
2019-02-20T00:34:22.478Z,4.96
2019-02-20T00:35:22.465Z,4.96
2019-02-20T00:36:22.452Z,4.99
2019-02-20T00:37:22.486Z,5.03
2019-02-20T00:38:22.432Z,4.94
2019-02-20T00:39:22.408Z,4.97
2019-02-20T00:40:22.398Z,4.94
2019-02-20T00:41:22.387Z,4.94
2019-02-20T00:42:22.388Z,4.88
2019-02-20T00:43:22.359Z,4.99
2019-02-20T00:44:22.350Z,4.99
2019-02-20T00:45:22.351Z,4.99
2019-02-20T00:46:22.402Z,5.03
2019-02-20T00:47:22.327Z,4.91
2019-02-20T00:48:22.311Z,4.89
2019-02-20T00:49:22.391Z,4.99
2019-02-20T00:51:13.008Z,4.89
2019-02-20T00:52:12.969Z,4.94
2019-02-20T00:53:12.936Z,4.96
2019-02-20T00:54:12.986Z,4.99
2019-02-20T00:55:12.938Z,5.00
2019-02-20T00:56:12.904Z,4.94
2019-02-20T00:57:12.916Z,4.92
2019-02-20T00:58:12.881Z,4.94
2019-02-20T00:59:12.868Z,4.99
2019-02-20T01:00:12.869Z,4.99
2019-02-20T01:01:12.857Z,4.89
2019-02-20T01:02:12.864Z,5.02
2019-02-20T01:03:12.841Z,4.99
2019-02-20T01:04:12.820Z,4.96
2019-02-20T01:05:12.800Z,4.97
2019-02-20T01:06:12.809Z,4.97
2019-02-20T01:07:12.786Z,4.96
2019-02-20T01:08:12.800Z,5.00
2019-02-20T01:09:12.764Z,4.99
2019-02-20T01:10:12.754Z,4.92
2019-02-20T01:11:12.749Z,4.97
2019-02-20T01:12:12.789Z,5.04
2019-02-20T01:13:12.721Z,4.94
2019-02-20T01:14:12.724Z,4.91
2019-02-20T01:15:12.691Z,4.96
2019-02-20T01:16:12.699Z,5.00
2019-02-20T01:17:12.689Z,4.94
2019-02-20T01:18:12.663Z,4.96
2019-02-20T01:19:12.653Z,4.94
2019-02-20T01:20:12.670Z,4.89
2019-02-20T01:21:12.633Z,4.96
2019-02-20T01:22:12.629Z,4.92
2019-02-20T01:23:12.604Z,4.89
2019-02-20T01:24:12.648Z,4.94
2019-02-20T01:25:12.616Z,4.94
2019-02-20T01:26:12.574Z,4.99
2019-02-20T01:27:12.568Z,4.94
2019-02-20T01:28:12.555Z,5.09
2019-02-20T01:29:12.556Z,4.96
2019-02-20T01:30:12.564Z,5.03
2019-02-20T01:31:12.520Z,4.91
2019-02-20T01:32:12.521Z,4.91
2019-02-20T01:33:12.533Z,4.94
2019-02-20T01:34:12.483Z,4.92
2019-02-20T01:35:12.484Z,4.88
2019-02-20T01:36:12.475Z,4.99
2019-02-20T01:37:12.451Z,4.96
2019-02-20T01:38:12.449Z,4.96
2019-02-20T01:39:12.427Z,4.91
2019-02-20T01:40:12.424Z,4.85
2019-02-20T01:41:12.431Z,4.88
2019-02-20T01:42:12.407Z,4.89
2019-02-20T01:43:12.383Z,4.92
2019-02-20T01:44:12.379Z,4.91
2019-02-20T01:45:12.371Z,4.89
2019-02-20T01:46:12.351Z,4.91
2019-02-20T01:47:12.372Z,4.92
2019-02-20T01:48:12.323Z,4.88
2019-02-20T01:49:12.356Z,4.86
2019-02-20T01:50:12.304Z,4.86
2019-02-20T01:51:12.289Z,4.91
2019-02-20T01:52:12.285Z,4.88
2019-02-20T01:53:12.346Z,4.88
2019-02-20T01:54:12.259Z,4.89
2019-02-20T01:55:12.260Z,4.89
2019-02-20T01:56:12.242Z,4.92
2019-02-20T01:57:12.228Z,4.88
2019-02-20T01:58:12.221Z,4.92
2019-02-20T01:59:12.203Z,4.92
2019-02-20T02:00:12.233Z,4.86
2019-02-20T02:01:12.202Z,4.91
2019-02-20T02:02:12.213Z,4.92
2019-02-20T02:03:12.178Z,4.92
2019-02-20T02:04:12.151Z,4.85
2019-02-20T02:05:15.503Z,4.86
2019-02-20T02:06:12.142Z,4.91
2019-02-20T02:07:12.118Z,4.86
2019-02-20T02:08:12.123Z,4.85
2019-02-20T02:09:12.090Z,4.88
2019-02-20T02:10:12.122Z,4.86
2019-02-20T02:11:12.098Z,4.89
2019-02-20T02:12:12.101Z,4.89
2019-02-20T02:13:12.091Z,4.91
2019-02-20T02:14:12.052Z,4.88
2019-02-20T02:15:20.100Z,4.89
2019-02-20T02:16:13.036Z,4.84
2019-02-20T02:17:12.014Z,4.82
2019-02-20T02:18:12.019Z,4.77
2019-02-20T02:19:11.995Z,4.77
2019-02-20T02:20:11.985Z,4.78
2019-02-20T02:21:11.963Z,4.84
2019-02-20T02:22:11.975Z,4.78
2019-02-20T02:23:19.606Z,4.77
2019-02-20T02:24:12.952Z,4.73
2019-02-20T02:25:11.915Z,4.82
2019-02-20T02:26:11.915Z,4.78
2019-02-20T02:27:11.910Z,4.72
2019-02-20T02:28:11.947Z,4.82
2019-02-20T02:29:11.869Z,4.78
2019-02-20T02:30:11.858Z,4.77
2019-02-20T02:31:11.869Z,4.77
2019-02-20T02:32:11.855Z,4.80
2019-02-20T02:33:11.889Z,4.73
2019-02-20T02:34:11.828Z,4.78
2019-02-20T02:35:11.815Z,4.78
2019-02-20T02:36:11.796Z,4.75
2019-02-20T02:37:11.808Z,4.73
2019-02-20T02:38:11.794Z,4.73
2019-02-20T02:39:11.759Z,4.73
2019-02-20T02:40:11.750Z,4.77
2019-02-20T02:41:11.781Z,4.82
2019-02-20T02:42:11.727Z,4.77
2019-02-20T02:43:11.725Z,4.78
2019-02-20T02:44:11.721Z,4.78
2019-02-20T02:45:11.719Z,4.73
2019-02-20T02:46:11.719Z,4.77
2019-02-20T02:47:11.673Z,4.75
2019-02-20T02:48:11.668Z,4.77
2019-02-20T02:49:11.668Z,4.75
2019-02-20T02:50:11.645Z,4.78
2019-02-20T02:51:11.634Z,4.73
2019-02-20T02:52:11.675Z,4.80
2019-02-20T02:53:11.604Z,4.80
2019-02-20T02:54:11.608Z,4.80
2019-02-20T02:55:11.601Z,4.72
2019-02-20T02:56:11.582Z,4.80
2019-02-20T02:57:11.574Z,4.72
2019-02-20T02:58:11.558Z,4.73
2019-02-20T02:59:11.601Z,4.78
2019-02-20T03:00:11.553Z,4.75
2019-02-20T03:01:11.521Z,4.72
2019-02-20T03:02:11.519Z,4.75
2019-02-20T03:03:11.491Z,4.77
2019-02-20T03:04:11.496Z,4.77
2019-02-20T03:05:11.518Z,4.72
2019-02-20T03:06:11.508Z,4.72
2019-02-20T03:07:11.457Z,4.75
2019-02-20T03:08:11.500Z,4.75
2019-02-20T03:09:11.444Z,4.75
2019-02-20T03:10:11.418Z,4.75
2019-02-20T03:11:11.433Z,4.77
2019-02-20T03:12:11.397Z,4.75
2019-02-20T03:13:11.381Z,4.77
2019-02-20T03:14:11.371Z,4.73
2019-02-20T03:15:11.362Z,4.75
2019-02-20T03:16:11.394Z,4.72
2019-02-20T03:17:11.350Z,4.77
2019-02-20T03:18:11.327Z,4.72
2019-02-20T03:19:11.327Z,4.73
2019-02-20T03:20:11.310Z,4.67
2019-02-20T03:21:11.348Z,4.66
2019-02-20T03:22:11.306Z,4.66
2019-02-20T03:23:11.280Z,4.70
2019-02-20T03:24:11.291Z,4.66
2019-02-20T03:25:11.254Z,4.67
2019-02-20T03:26:11.256Z,4.66
2019-02-20T03:27:11.274Z,4.63
2019-02-20T03:28:11.216Z,4.70
2019-02-20T03:29:11.204Z,4.59
2019-02-20T03:30:11.207Z,4.65
2019-02-20T03:31:11.201Z,4.66
2019-02-20T03:32:11.190Z,4.65
2019-02-20T03:33:11.169Z,4.65
2019-02-20T03:34:11.216Z,4.65
2019-02-20T03:35:11.144Z,4.72
2019-02-20T03:36:11.157Z,4.55
2019-02-20T03:37:11.117Z,4.69
2019-02-20T03:38:11.117Z,4.59
2019-02-20T03:39:11.100Z,4.58
2019-02-20T03:40:11.106Z,4.58
2019-02-20T03:41:11.074Z,4.58
2019-02-20T03:42:11.097Z,4.58
2019-02-20T03:43:11.092Z,4.59
2019-02-20T03:44:11.071Z,4.59
2019-02-20T03:45:11.043Z,4.58
2019-02-20T03:46:11.023Z,4.52
2019-02-20T03:47:11.031Z,4.47
2019-02-20T03:48:11.012Z,4.51
2019-02-20T03:49:11.004Z,4.48
2019-02-20T03:50:11.007Z,4.50
2019-02-20T03:51:10.977Z,4.48
2019-02-20T03:52:10.953Z,4.52
2019-02-20T03:53:10.976Z,4.48
2019-02-20T03:54:10.945Z,4.58
2019-02-20T03:55:10.927Z,4.51
2019-02-20T03:56:10.918Z,4.51
2019-02-20T03:57:10.892Z,4.45
2019-02-20T03:58:10.898Z,4.50
2019-02-20T03:59:10.927Z,4.54
2019-02-20T04:00:10.858Z,4.55
2019-02-20T04:01:10.863Z,4.51
2019-02-20T04:02:10.840Z,4.50
2019-02-20T04:03:10.832Z,4.54
2019-02-20T04:04:10.873Z,4.48
2019-02-20T04:05:10.809Z,4.54
2019-02-20T04:06:10.811Z,4.52
2019-02-20T04:07:10.789Z,4.52
2019-02-20T04:08:10.769Z,4.52
2019-02-20T04:09:10.775Z,4.54
2019-02-20T04:10:10.753Z,4.54
2019-02-20T04:11:10.793Z,4.55
2019-02-20T04:12:10.744Z,4.51
2019-02-20T04:13:10.715Z,4.54
2019-02-20T04:14:10.714Z,4.51
2019-02-20T04:15:10.705Z,4.54
2019-02-20T04:16:10.686Z,4.52
2019-02-20T04:17:10.676Z,4.54
2019-02-20T04:18:11.036Z,4.48
2019-02-20T04:19:10.660Z,4.48
2019-02-20T04:20:10.652Z,4.48
2019-02-20T04:21:10.646Z,4.48
2019-02-20T04:22:10.657Z,4.52
2019-02-20T04:23:10.612Z,4.51
2019-02-20T04:24:10.607Z,4.47
2019-02-20T04:25:10.585Z,4.54
2019-02-20T04:26:10.584Z,4.51
2019-02-20T04:27:10.579Z,4.45
2019-02-20T04:28:10.559Z,4.42
2019-02-20T04:29:10.576Z,4.45
2019-02-20T04:30:10.538Z,4.41
2019-02-20T04:31:10.514Z,4.47
2019-02-20T04:32:10.511Z,4.44
2019-02-20T04:33:10.501Z,4.48
2019-02-20T04:34:10.486Z,4.44
2019-02-20T04:35:10.473Z,4.48
2019-02-20T04:36:10.466Z,4.51
2019-02-20T04:37:10.447Z,4.40
2019-02-20T04:38:10.496Z,4.36
2019-02-20T04:39:10.440Z,4.48
2019-02-20T04:40:10.427Z,4.33
2019-02-20T04:41:10.409Z,4.47
2019-02-20T04:42:10.444Z,4.30
2019-02-20T04:43:10.401Z,4.47
2019-02-20T04:44:10.385Z,4.42
2019-02-20T04:45:10.372Z,4.44
2019-02-20T04:46:10.361Z,4.33
2019-02-20T04:47:10.348Z,4.42
2019-02-20T04:48:10.334Z,4.34
2019-02-20T04:49:10.335Z,4.37
2019-02-20T04:50:10.326Z,4.37
2019-02-20T04:51:10.342Z,4.30
2019-02-20T04:52:10.284Z,4.37
2019-02-20T04:53:10.298Z,4.32
2019-02-20T04:54:13.297Z,4.33
2019-02-20T04:55:10.269Z,4.26
2019-02-20T04:56:10.265Z,4.37
2019-02-20T04:57:10.251Z,4.30
2019-02-20T04:58:10.239Z,4.27
2019-02-20T04:59:10.249Z,4.33
2019-02-20T05:00:10.203Z,4.27
2019-02-20T05:01:10.186Z,4.30
2019-02-20T05:02:10.210Z,4.34
2019-02-20T05:03:10.168Z,4.33
2019-02-20T05:04:10.162Z,4.29
2019-02-20T05:05:10.155Z,4.24
2019-02-20T05:06:10.140Z,4.20
2019-02-20T05:07:10.125Z,4.29
2019-02-20T05:08:10.185Z,4.40
2019-02-20T05:09:10.096Z,4.41
2019-02-20T05:10:10.093Z,4.33
2019-02-20T05:11:10.079Z,4.34
2019-02-20T05:12:10.061Z,4.34
2019-02-20T05:13:10.086Z,4.37
2019-02-20T05:14:10.052Z,4.32
2019-02-20T05:15:10.052Z,4.34
2019-02-20T05:16:10.032Z,4.40
2019-02-20T05:17:10.053Z,4.34
2019-02-20T05:18:10.032Z,4.40
2019-02-20T05:19:10.042Z,4.48
2019-02-20T05:20:10.021Z,4.42
2019-02-20T05:21:10.002Z,4.40
2019-02-20T05:22:10.065Z,4.42
2019-02-20T05:23:09.973Z,4.32
2019-02-20T05:24:09.931Z,4.42
2019-02-20T05:25:09.925Z,4.36
2019-02-20T05:26:09.911Z,4.32
2019-02-20T05:27:09.908Z,4.42
2019-02-20T05:28:09.938Z,4.42
2019-02-20T05:29:09.878Z,4.47
2019-02-20T05:30:09.867Z,4.45
2019-02-20T05:31:09.855Z,4.45
2019-02-20T05:32:09.855Z,4.45
2019-02-20T05:33:09.831Z,4.34
2019-02-20T05:34:09.839Z,4.45
2019-02-20T05:35:09.845Z,4.47
2019-02-20T05:36:09.797Z,4.48
2019-02-20T05:37:09.836Z,4.41
2019-02-20T05:38:09.799Z,4.47
2019-02-20T05:39:09.786Z,4.40
2019-02-20T05:40:09.829Z,4.52
2019-02-20T05:41:09.772Z,4.33
2019-02-20T05:42:09.727Z,4.37
2019-02-20T05:43:09.721Z,4.42
2019-02-20T05:44:09.719Z,4.45
2019-02-20T05:45:09.699Z,4.41
2019-02-20T05:46:09.687Z,4.42
2019-02-20T05:47:09.689Z,4.52
2019-02-20T05:48:09.670Z,4.42
2019-02-20T05:49:09.652Z,4.47
2019-02-20T05:50:09.678Z,4.52
2019-02-20T05:51:09.693Z,4.41
2019-02-20T05:52:09.631Z,4.40
2019-02-20T05:53:09.605Z,4.52
2019-02-20T05:54:09.598Z,4.48
2019-02-20T05:55:09.622Z,4.45
2019-02-20T05:56:09.572Z,4.54
2019-02-20T05:57:09.566Z,4.54
2019-02-20T05:58:09.561Z,4.42
2019-02-20T05:59:09.541Z,4.33
2019-02-20T06:00:09.532Z,4.44
2019-02-20T06:01:09.609Z,4.44
2019-02-20T06:02:09.514Z,4.50
2019-02-20T06:03:09.520Z,4.47
2019-02-20T06:04:09.497Z,4.41
2019-02-20T06:05:09.474Z,4.42
2019-02-20T06:06:09.475Z,4.44
2019-02-20T06:07:09.458Z,4.59
2019-02-20T06:08:09.457Z,4.47
2019-02-20T06:09:09.427Z,4.44
2019-02-20T06:10:09.453Z,4.41
2019-02-20T06:11:14.877Z,4.41
2019-02-20T06:12:10.462Z,4.42
2019-02-20T06:13:09.386Z,4.36
2019-02-20T06:14:09.391Z,4.37
2019-02-20T06:15:09.370Z,4.36
2019-02-20T06:16:09.350Z,4.50
2019-02-20T06:17:09.396Z,4.52
2019-02-20T06:18:09.339Z,4.41
2019-02-20T06:19:09.351Z,4.51
2019-02-20T06:20:09.341Z,4.33
2019-02-20T06:21:09.305Z,4.45
2019-02-20T06:22:09.295Z,4.51
2019-02-20T06:23:09.302Z,4.45
2019-02-20T06:24:09.275Z,4.48
2019-02-20T06:25:09.308Z,4.42
2019-02-20T06:26:09.284Z,4.42
2019-02-20T06:27:09.238Z,4.36
2019-02-20T06:28:09.285Z,4.40
2019-02-20T06:29:09.203Z,4.45
2019-02-20T06:30:09.201Z,4.44
2019-02-20T06:31:09.190Z,4.45
2019-02-20T06:32:09.235Z,4.51
2019-02-20T06:33:09.180Z,4.47
2019-02-20T06:34:09.155Z,4.50
2019-02-20T06:35:09.184Z,4.54
2019-02-20T06:36:09.127Z,4.50
2019-02-20T06:37:09.122Z,4.52
2019-02-20T06:38:10.947Z,4.58
2019-02-20T06:39:09.104Z,4.55
2019-02-20T06:40:09.134Z,4.58
2019-02-20T06:41:09.073Z,4.51
2019-02-20T06:42:09.058Z,4.54
2019-02-20T06:43:09.051Z,4.54
2019-02-20T06:44:09.056Z,4.60
2019-02-20T06:45:09.043Z,4.58
2019-02-20T06:46:09.041Z,4.55
2019-02-20T06:47:09.019Z,4.60
2019-02-20T06:48:09.005Z,4.60
2019-02-20T06:49:09.006Z,4.51
2019-02-20T06:50:08.977Z,4.55
2019-02-20T06:51:08.958Z,4.54
2019-02-20T06:52:08.957Z,4.58
2019-02-20T06:53:08.936Z,4.63
2019-02-20T06:54:10.145Z,4.60
2019-02-20T06:55:08.938Z,4.62
2019-02-20T06:56:08.933Z,4.55
2019-02-20T06:57:08.902Z,4.63
2019-02-20T06:58:08.892Z,4.63
2019-02-20T06:59:08.879Z,4.59
2019-02-20T07:00:08.905Z,4.59
2019-02-20T07:01:08.867Z,4.69
2019-02-20T07:02:08.845Z,4.58
2019-02-20T07:03:08.839Z,4.59
2019-02-20T07:04:08.846Z,4.63
2019-02-20T07:05:08.851Z,4.69
2019-02-20T07:06:08.806Z,4.69
2019-02-20T07:07:08.802Z,4.62
2019-02-20T07:08:08.777Z,4.67
2019-02-20T07:09:15.835Z,4.67
2019-02-20T07:10:08.755Z,4.69
2019-02-20T07:11:08.749Z,4.65
2019-02-20T07:12:08.739Z,4.73
2019-02-20T07:13:08.719Z,4.75
2019-02-20T07:14:08.705Z,4.72
2019-02-20T07:15:08.705Z,4.72
2019-02-20T07:16:08.710Z,4.69
2019-02-20T07:17:08.671Z,4.62
2019-02-20T07:18:08.665Z,4.66
2019-02-20T07:19:08.682Z,4.80
2019-02-20T07:20:08.645Z,4.77
2019-02-20T07:21:08.634Z,4.66
2019-02-20T07:22:08.637Z,4.77
2019-02-20T07:23:08.641Z,4.80
2019-02-20T07:24:08.611Z,4.75
2019-02-20T07:25:08.592Z,4.78
2019-02-20T07:26:08.587Z,4.78
2019-02-20T07:27:08.600Z,4.75
2019-02-20T07:28:08.555Z,4.78
2019-02-20T07:29:08.555Z,4.78
2019-02-20T07:30:08.532Z,4.82
2019-02-20T07:31:08.515Z,4.89
2019-02-20T07:32:08.515Z,4.86
2019-02-20T07:33:08.508Z,4.86
2019-02-20T07:34:08.482Z,4.91
2019-02-20T07:35:08.477Z,4.92
2019-02-20T07:36:08.479Z,4.89
2019-02-20T07:37:09.230Z,4.94
2019-02-20T07:38:08.458Z,4.85
2019-02-20T07:39:08.427Z,5.02
2019-02-20T07:40:08.462Z,5.09
2019-02-20T07:41:08.416Z,5.06
2019-02-20T07:42:08.432Z,4.99
2019-02-20T07:43:08.408Z,5.03
2019-02-20T07:44:08.385Z,5.06
2019-02-20T07:45:08.390Z,5.13
2019-02-20T07:46:08.348Z,5.13
2019-02-20T07:47:08.355Z,5.22
2019-02-20T07:48:08.334Z,5.06
2019-02-20T07:49:09.543Z,5.20
2019-02-20T07:50:08.318Z,5.13
2019-02-20T07:51:08.328Z,5.18
2019-02-20T07:52:08.297Z,5.24
2019-02-20T07:53:08.273Z,5.20
2019-02-20T07:54:08.266Z,5.18
2019-02-20T07:55:13.360Z,5.22
2019-02-20T07:56:09.250Z,5.24
2019-02-20T07:57:08.230Z,5.24
2019-02-20T07:58:08.223Z,5.28
2019-02-20T07:59:08.206Z,5.27
2019-02-20T08:00:08.263Z,5.25
2019-02-20T08:01:08.222Z,5.28
2019-02-20T08:02:08.194Z,5.33
2019-02-20T08:03:08.161Z,5.33
2019-02-20T08:04:08.163Z,5.36
2019-02-20T08:05:08.152Z,5.39
2019-02-20T08:06:08.159Z,5.42
2019-02-20T08:07:08.131Z,5.39
2019-02-20T08:08:08.128Z,5.46
2019-02-20T08:09:08.133Z,5.49
2019-02-20T08:10:08.099Z,5.51
2019-02-20T08:11:08.093Z,5.54
2019-02-20T08:12:08.061Z,5.49
2019-02-20T08:13:09.473Z,5.56
2019-02-20T08:14:08.037Z,5.58
2019-02-20T08:15:08.030Z,5.63
2019-02-20T08:16:08.032Z,5.60
2019-02-20T08:17:08.016Z,5.65
2019-02-20T08:18:08.004Z,5.71
2019-02-20T08:19:07.978Z,5.72
2019-02-20T08:20:07.977Z,5.72
2019-02-20T08:21:07.982Z,5.76
2019-02-20T08:22:08.047Z,5.85
2019-02-20T08:23:07.939Z,5.81
2019-02-20T08:24:07.926Z,5.83
2019-02-20T08:25:07.954Z,5.72
2019-02-20T08:26:07.916Z,5.78
2019-02-20T08:27:07.903Z,5.82
2019-02-20T08:28:07.893Z,5.86
2019-02-20T08:29:07.879Z,5.90
2019-02-20T08:30:07.862Z,5.89
2019-02-20T08:31:07.861Z,5.89
2019-02-20T08:32:07.852Z,5.99
2019-02-20T08:33:07.857Z,5.93
2019-02-20T08:34:07.842Z,5.99
2019-02-20T08:35:07.813Z,6.04
2019-02-20T08:36:07.807Z,6.00
2019-02-20T08:37:07.779Z,6.04
2019-02-20T08:38:07.779Z,6.03
2019-02-20T08:39:07.771Z,6.03
2019-02-20T08:40:07.766Z,6.08
2019-02-20T08:41:07.750Z,6.12
2019-02-20T08:42:07.737Z,6.15
2019-02-20T08:43:07.772Z,6.14
2019-02-20T08:44:07.708Z,6.12
2019-02-20T08:45:07.711Z,6.19
2019-02-20T08:46:07.728Z,6.25
2019-02-20T08:47:07.731Z,6.22
2019-02-20T08:48:07.665Z,6.33
2019-02-20T08:49:07.662Z,6.30
2019-02-20T08:50:07.641Z,6.30
2019-02-20T08:51:07.654Z,6.33
2019-02-20T08:52:07.641Z,6.34
2019-02-20T08:53:07.616Z,6.31
2019-02-20T08:54:07.611Z,6.33
2019-02-20T08:55:07.596Z,6.36
2019-02-20T08:56:07.583Z,6.41
2019-02-20T08:57:07.570Z,6.40
2019-02-20T08:58:07.556Z,6.48
2019-02-20T08:59:07.548Z,6.44
2019-02-20T09:00:07.530Z,6.37
2019-02-20T09:01:07.557Z,6.51
2019-02-20T09:02:07.509Z,6.58
2019-02-20T09:03:07.498Z,6.54
2019-02-20T09:04:07.497Z,6.52
2019-02-20T09:05:07.473Z,6.56
2019-02-20T09:06:07.473Z,6.49
2019-02-20T09:07:07.479Z,6.55
2019-02-20T09:08:07.455Z,6.62
2019-02-20T09:09:07.437Z,6.49
2019-02-20T09:10:07.416Z,6.64
2019-02-20T09:11:07.420Z,6.61
2019-02-20T09:12:07.424Z,6.70
2019-02-20T09:13:07.382Z,6.67
2019-02-20T09:14:07.371Z,6.67
2019-02-20T09:15:07.377Z,6.67
2019-02-20T09:16:07.357Z,6.74
2019-02-20T09:17:07.343Z,6.69
2019-02-20T09:18:07.363Z,6.84
2019-02-20T09:19:07.319Z,6.89
2019-02-20T09:20:07.310Z,6.88
2019-02-20T09:21:07.295Z,6.84
2019-02-20T09:22:07.282Z,6.94
2019-02-20T09:23:07.301Z,6.87
2019-02-20T09:24:07.265Z,6.88
2019-02-20T09:25:07.257Z,6.95
2019-02-20T09:26:07.277Z,6.92
2019-02-20T09:27:07.229Z,6.97
2019-02-20T09:28:07.221Z,6.91
2019-02-20T09:29:07.246Z,6.98
2019-02-20T09:30:07.198Z,7.03
2019-02-20T09:31:07.185Z,7.03
2019-02-20T09:32:07.182Z,6.94
2019-02-20T09:33:07.173Z,6.99
2019-02-20T09:34:07.205Z,6.89
2019-02-20T09:35:07.142Z,7.06
2019-02-20T09:36:07.129Z,7.07
2019-02-20T09:37:07.136Z,7.03
2019-02-20T09:38:07.118Z,7.10
2019-02-20T09:39:07.095Z,7.10
2019-02-20T09:40:07.096Z,6.97
2019-02-20T09:41:07.074Z,7.06
2019-02-20T09:42:07.078Z,7.07
2019-02-20T09:43:07.057Z,7.12
2019-02-20T09:44:07.039Z,7.16
2019-02-20T09:45:07.076Z,7.27
2019-02-20T09:46:07.019Z,7.27
2019-02-20T09:47:07.025Z,7.31
2019-02-20T09:48:06.996Z,7.40
2019-02-20T09:49:06.994Z,7.48
2019-02-20T09:50:06.984Z,7.45
2019-02-20T09:51:06.977Z,7.55
2019-02-20T09:52:06.976Z,7.58
2019-02-20T09:53:06.952Z,7.58
2019-02-20T09:54:06.929Z,7.61
2019-02-20T09:55:06.939Z,7.57
2019-02-20T09:56:06.973Z,7.57
2019-02-20T09:57:06.908Z,7.58
2019-02-20T09:58:06.886Z,7.53
2019-02-20T09:59:06.879Z,7.55
2019-02-20T10:00:06.861Z,7.69
2019-02-20T10:01:06.872Z,7.68
2019-02-20T10:02:06.856Z,7.68
2019-02-20T10:03:06.829Z,7.74
2019-02-20T10:04:06.831Z,7.72
2019-02-20T10:05:06.815Z,7.79
2019-02-20T10:06:06.796Z,7.80
2019-02-20T10:07:06.796Z,7.86
2019-02-20T10:08:06.790Z,7.85
2019-02-20T10:09:06.816Z,7.85
2019-02-20T10:10:06.761Z,7.83
2019-02-20T10:11:06.743Z,7.82
2019-02-20T10:12:06.770Z,7.74
2019-02-20T10:13:06.724Z,7.82
2019-02-20T10:14:06.714Z,7.82
2019-02-20T10:15:06.705Z,7.80
2019-02-20T10:16:06.688Z,7.80
2019-02-20T10:17:06.680Z,7.93
2019-02-20T10:18:07.656Z,7.97
2019-02-20T10:19:06.655Z,7.87
2019-02-20T10:20:06.689Z,7.92
2019-02-20T10:21:06.651Z,7.93
2019-02-20T10:22:06.620Z,8.00
2019-02-20T10:23:06.607Z,8.10
2019-02-20T10:24:06.612Z,8.11
2019-02-20T10:25:06.584Z,8.16
2019-02-20T10:26:13.808Z,8.18
2019-02-20T10:27:06.633Z,8.15
2019-02-20T10:28:06.561Z,8.29
2019-02-20T10:29:06.582Z,8.28
2019-02-20T10:30:06.608Z,8.26
2019-02-20T10:31:06.596Z,8.25
2019-02-20T10:32:06.515Z,8.28
2019-02-20T10:33:06.497Z,8.30
2019-02-20T10:34:06.504Z,8.25
2019-02-20T10:35:06.483Z,8.29
2019-02-20T10:36:06.463Z,8.37
2019-02-20T10:37:06.463Z,8.36
2019-02-20T10:38:06.458Z,8.45
2019-02-20T10:39:06.464Z,8.44
2019-02-20T10:40:06.421Z,8.52
2019-02-20T10:41:06.418Z,8.45
2019-02-20T10:42:06.417Z,8.48
2019-02-20T10:43:06.393Z,8.55
2019-02-20T10:44:06.488Z,8.53
2019-02-20T10:45:06.378Z,8.62
2019-02-20T10:46:06.360Z,8.55
2019-02-20T10:47:06.346Z,8.56
2019-02-20T10:48:06.393Z,8.50
2019-02-20T10:49:06.327Z,8.41
2019-02-20T10:50:06.346Z,8.41
2019-02-20T10:51:06.329Z,8.40
2019-02-20T10:52:06.283Z,8.45
2019-02-20T10:53:06.292Z,8.25
2019-02-20T10:54:06.266Z,8.30
2019-02-20T10:55:06.262Z,8.25
2019-02-20T10:56:09.301Z,8.25
2019-02-20T10:57:06.264Z,8.19
2019-02-20T10:58:06.220Z,8.25
2019-02-20T10:59:06.254Z,8.29
2019-02-20T11:00:06.244Z,8.29
2019-02-20T11:01:06.187Z,8.26
2019-02-20T11:02:06.201Z,8.45
2019-02-20T11:03:06.197Z,8.47
2019-02-20T11:04:06.182Z,8.41
2019-02-20T11:05:06.158Z,8.38
2019-02-20T11:06:06.167Z,8.37
2019-02-20T11:07:06.199Z,8.36
2019-02-20T11:08:06.197Z,8.34
2019-02-20T11:09:06.135Z,8.45
2019-02-20T11:10:06.273Z,8.44
2019-02-20T11:11:06.133Z,8.48
2019-02-20T11:12:06.278Z,8.56
2019-02-20T11:13:06.118Z,8.63
2019-02-20T11:14:06.051Z,8.77
2019-02-20T11:15:06.088Z,8.81
2019-02-20T11:16:06.029Z,8.83
2019-02-20T11:17:06.009Z,9.05
2019-02-20T11:18:06.049Z,9.02
2019-02-20T11:19:06.029Z,9.14
2019-02-20T11:20:05.976Z,9.17
2019-02-20T11:21:05.973Z,9.26
2019-02-20T11:22:05.958Z,9.32
2019-02-20T11:23:05.947Z,9.35
2019-02-20T11:24:05.948Z,9.43
2019-02-20T11:25:05.944Z,9.40
2019-02-20T11:26:05.934Z,9.38
2019-02-20T11:27:05.906Z,9.39
2019-02-20T11:28:05.924Z,9.51
2019-02-20T11:29:05.874Z,9.54
2019-02-20T11:30:07.227Z,9.50
2019-02-20T11:31:05.906Z,9.53
2019-02-20T11:32:05.877Z,9.66
2019-02-20T11:33:05.842Z,9.60
2019-02-20T11:34:05.826Z,9.61
2019-02-20T11:35:05.806Z,9.66
2019-02-20T11:36:05.794Z,9.66
2019-02-20T11:37:05.841Z,9.65
2019-02-20T11:38:05.801Z,9.71
2019-02-20T11:39:05.771Z,9.72
2019-02-20T11:40:05.760Z,9.65
2019-02-20T11:41:05.738Z,9.64
2019-02-20T11:42:05.738Z,9.56
2019-02-20T11:43:06.257Z,9.54
2019-02-20T11:44:05.705Z,9.51
2019-02-20T11:45:05.697Z,9.54
2019-02-20T11:46:05.695Z,9.51
2019-02-20T11:47:05.674Z,9.40
2019-02-20T11:48:05.689Z,9.51
2019-02-20T11:49:05.665Z,9.46
2019-02-20T11:50:05.640Z,9.53
2019-02-20T11:51:05.628Z,9.51
2019-02-20T11:52:05.617Z,9.56
2019-02-20T11:53:05.631Z,9.60
2019-02-20T11:54:05.627Z,9.60
2019-02-20T11:55:05.647Z,9.60
2019-02-20T11:56:05.576Z,9.76
2019-02-20T11:57:05.555Z,9.76
2019-02-20T11:58:05.621Z,9.93
2019-02-20T11:59:05.553Z,10.04
2019-02-20T12:00:05.572Z,10.09
2019-02-20T12:01:05.521Z,10.20
2019-02-20T12:02:05.543Z,10.30
2019-02-20T12:03:05.489Z,10.33
2019-02-20T12:04:05.522Z,10.38
2019-02-20T12:05:05.497Z,10.47
2019-02-20T12:06:05.455Z,10.51
2019-02-20T12:07:05.531Z,10.51
2019-02-20T12:08:05.468Z,10.51
2019-02-20T12:09:05.420Z,10.60
2019-02-20T12:10:05.418Z,10.59
2019-02-20T12:11:05.574Z,10.76
2019-02-20T12:12:05.471Z,10.79
2019-02-20T12:13:05.385Z,10.84
2019-02-20T12:14:05.414Z,10.79
2019-02-20T12:15:05.352Z,10.73
2019-02-20T12:16:05.353Z,10.71
2019-02-20T12:17:05.356Z,10.68
2019-02-20T12:18:05.333Z,10.71
2019-02-20T12:19:05.317Z,10.73
2019-02-20T12:20:05.297Z,10.64
2019-02-20T12:21:05.316Z,10.71
2019-02-20T12:22:05.360Z,10.56
2019-02-20T12:23:05.331Z,10.59
2019-02-20T12:24:05.785Z,10.64
2019-02-20T12:25:05.239Z,10.56
2019-02-20T12:26:05.230Z,10.47
2019-02-20T12:27:05.343Z,10.48
2019-02-20T12:28:05.219Z,10.48
2019-02-20T12:29:05.241Z,10.45
2019-02-20T12:30:05.219Z,10.40
2019-02-20T12:31:05.224Z,10.29
2019-02-20T12:32:05.218Z,10.26
2019-02-20T12:33:05.165Z,10.22
2019-02-20T12:34:05.141Z,10.08
2019-02-20T12:35:05.137Z,10.07
2019-02-20T12:36:05.164Z,10.04
2019-02-20T12:37:05.136Z,10.09
2019-02-20T12:38:05.110Z,10.14
2019-02-20T12:39:05.085Z,10.07
2019-02-20T12:40:05.218Z,10.02
2019-02-20T12:41:05.071Z,9.99
2019-02-20T12:42:05.133Z,9.99
2019-02-20T12:43:05.158Z,9.97
2019-02-20T12:44:05.088Z,10.01
2019-02-20T12:45:05.017Z,9.94
2019-02-20T12:46:05.083Z,9.94
2019-02-20T12:47:05.053Z,10.02
2019-02-20T12:48:04.989Z,9.96
2019-02-20T12:49:05.002Z,9.93
2019-02-20T12:50:05.031Z,9.91
2019-02-20T12:51:04.956Z,9.91
2019-02-20T12:52:04.981Z,9.83
2019-02-20T12:53:04.965Z,9.83
2019-02-20T12:54:04.930Z,9.97
2019-02-20T12:55:04.915Z,9.93
2019-02-20T12:56:09.960Z,10.05
2019-02-20T12:57:05.922Z,10.02
2019-02-20T12:58:04.874Z,10.08
2019-02-20T12:59:07.814Z,10.08
2019-02-20T13:00:04.853Z,10.15
2019-02-20T13:01:04.839Z,10.05
2019-02-20T13:02:04.830Z,10.05
2019-02-20T13:03:04.832Z,10.09
2019-02-20T13:04:04.818Z,10.02
2019-02-20T13:05:04.878Z,10.02
2019-02-20T13:06:04.789Z,9.97
2019-02-20T13:07:04.772Z,9.94
2019-02-20T13:08:04.825Z,9.93
2019-02-20T13:09:04.756Z,9.97
2019-02-20T13:10:04.759Z,10.08
2019-02-20T13:11:04.847Z,10.04
2019-02-20T13:12:04.718Z,9.90
2019-02-20T13:13:04.823Z,9.91
2019-02-20T13:14:04.734Z,9.90
2019-02-20T13:15:04.686Z,9.89
2019-02-20T13:16:09.612Z,9.90
2019-02-20T13:17:05.672Z,9.87